createdAt,value
2022-09-01T00:00:02.896Z,100.00
2022-09-01T00:03:07.807Z,100.00
2022-09-01T00:06:11.999Z,100.00
2022-09-01T00:09:20.595Z,100.00
2022-09-01T00:12:25.737Z,100.00
2022-09-01T00:15:28.692Z,100.00
2022-09-01T00:18:32.192Z,100.00
2022-09-01T00:21:39.089Z,100.00
2022-09-01T00:24:42.082Z,100.00
2022-09-01T00:27:44.906Z,100.00
2022-09-01T00:30:47.820Z,100.00
2022-09-01T00:33:51.504Z,100.00
2022-09-01T00:36:55.795Z,100.00
2022-09-01T00:39:59.128Z,100.00
2022-09-01T00:43:02.513Z,100.00
2022-09-01T00:46:05.722Z,100.00
2022-09-01T00:49:16.103Z,100.00
2022-09-01T00:52:24.224Z,100.00
2022-09-01T00:55:30.761Z,100.00
2022-09-01T00:58:37.067Z,100.00
2022-09-01T01:01:40.698Z,100.00
2022-09-01T01:04:44.137Z,100.00
2022-09-01T01:07:48.408Z,100.00
2022-09-01T01:10:51.512Z,100.00
2022-09-01T01:13:57.525Z,100.00
2022-09-01T01:17:02.086Z,100.00
2022-09-01T01:20:26.194Z,100.00
2022-09-01T01:23:39.152Z,100.00
2022-09-01T01:26:43.528Z,100.00
2022-09-01T01:29:47.765Z,100.00
2022-09-01T01:32:51.956Z,100.00
2022-09-01T01:35:57.683Z,100.00
2022-09-01T01:39:06.595Z,100.00
2022-09-01T01:42:12.367Z,100.00
2022-09-01T01:45:17.396Z,100.00
2022-09-01T01:48:24.008Z,100.00
2022-09-01T01:51:28.505Z,100.00
2022-09-01T01:54:32.759Z,100.00
2022-09-01T01:57:37.412Z,100.00
2022-09-01T02:00:42.950Z,100.00
2022-09-01T02:03:45.881Z,100.00
2022-09-01T02:06:50.073Z,100.00
2022-09-01T02:09:53.357Z,100.00
2022-09-01T02:13:03.602Z,100.00
2022-09-01T02:16:13.203Z,100.00
2022-09-01T02:19:21.291Z,100.00
2022-09-01T02:22:24.206Z,100.00
2022-09-01T02:25:27.581Z,100.00
2022-09-01T02:28:35.028Z,100.00
2022-09-01T02:31:40.026Z,100.00
2022-09-01T02:34:42.863Z,100.00
2022-09-01T02:37:49.467Z,100.00
2022-09-01T02:40:53.684Z,100.00
2022-09-01T02:44:00.316Z,100.00
2022-09-01T02:47:08.007Z,100.00
2022-09-01T02:50:13.889Z,100.00
2022-09-01T02:53:16.724Z,100.00
2022-09-01T02:56:25.652Z,100.00
2022-09-01T02:59:32.242Z,100.00
2022-09-01T03:02:36.875Z,100.00
2022-09-01T03:05:41.062Z,100.00
2022-09-01T03:08:45.026Z,100.00
2022-09-01T03:11:50.685Z,100.00
2022-09-01T03:14:54.876Z,100.00
2022-09-01T03:17:59.611Z,100.00
2022-09-01T03:21:03.519Z,100.00
2022-09-01T03:24:06.581Z,100.00
2022-09-01T03:27:11.773Z,100.00
2022-09-01T03:30:16.460Z,100.00
2022-09-01T03:33:22.694Z,100.00
2022-09-01T03:36:27.789Z,100.00
2022-09-01T03:39:31.352Z,100.00
2022-09-01T03:42:34.237Z,100.00
2022-09-01T03:45:39.076Z,100.00
2022-09-01T03:48:43.495Z,100.00
2022-09-01T03:51:46.503Z,100.00
2022-09-01T03:54:54.325Z,100.00
2022-09-01T03:58:00.379Z,100.00
2022-09-01T04:01:04.997Z,100.00
2022-09-01T04:04:13.854Z,100.00
2022-09-01T04:07:18.961Z,100.00
2022-09-01T04:10:22.532Z,100.00
2022-09-01T04:13:28.151Z,100.00
2022-09-01T04:16:52.911Z,100.00
2022-09-01T04:19:56.029Z,100.00
2022-09-01T04:22:59.890Z,100.00
2022-09-01T04:26:09.127Z,100.00
2022-09-01T04:29:12.965Z,100.00
2022-09-01T04:32:17.397Z,100.00
2022-09-01T04:35:32.693Z,100.00
2022-09-01T04:38:41.188Z,100.00
2022-09-01T04:41:46.998Z,100.00
2022-09-01T04:44:50.015Z,100.00
2022-09-01T04:47:54.188Z,100.00
2022-09-01T04:50:58.438Z,100.00
2022-09-01T04:54:03.734Z,100.00
2022-09-01T04:57:07.547Z,100.00
2022-09-01T05:00:22.623Z,100.00
2022-09-01T05:03:27.494Z,100.00
2022-09-01T05:06:33.974Z,100.00
2022-09-01T05:09:38.650Z,100.00
2022-09-01T05:13:01.947Z,100.00
2022-09-01T05:16:13.049Z,100.00
2022-09-01T05:19:21.008Z,100.00
2022-09-01T05:22:25.726Z,100.00
2022-09-01T05:25:32.606Z,100.00
2022-09-01T05:28:35.985Z,100.00
2022-09-01T05:31:39.141Z,100.00
2022-09-01T05:34:43.910Z,100.00
2022-09-01T05:37:47.031Z,100.00
2022-09-01T05:40:58.154Z,100.00
2022-09-01T05:44:03.044Z,100.00
2022-09-01T05:47:12.169Z,100.00
2022-09-01T05:50:27.399Z,100.00
2022-09-01T05:53:36.312Z,100.00
2022-09-01T05:56:43.702Z,100.00
2022-09-01T05:59:54.109Z,100.00
2022-09-01T06:03:01.809Z,100.00
2022-09-01T06:06:08.837Z,100.00
2022-09-01T06:09:12.122Z,100.00
2022-09-01T06:12:20.452Z,100.00
2022-09-01T06:15:24.822Z,100.00
2022-09-01T06:18:29.763Z,100.00
2022-09-01T06:21:35.877Z,100.00
2022-09-01T06:24:41.020Z,100.00
2022-09-01T06:27:48.761Z,100.00
2022-09-01T06:30:53.287Z,100.00
2022-09-01T06:33:58.037Z,100.00
2022-09-01T06:37:02.185Z,100.00
2022-09-01T06:40:08.062Z,100.00
2022-09-01T06:43:14.091Z,100.00
2022-09-01T06:46:20.143Z,100.00
2022-09-01T06:49:32.593Z,100.00
2022-09-01T06:56:02.940Z,100.00
2022-09-01T06:59:08.152Z,100.00
2022-09-01T07:02:17.773Z,100.00
2022-09-01T07:06:00.869Z,100.00
2022-09-01T07:09:38.841Z,100.00
2022-09-01T07:13:10.122Z,100.00
2022-09-01T07:16:35.434Z,100.00
2022-09-01T07:19:54.839Z,100.00
2022-09-01T07:23:05.575Z,100.00
2022-09-01T07:30:53.980Z,100.00
2022-09-01T07:44:21.362Z,100.00
2022-09-01T07:47:55.093Z,100.00
2022-09-01T07:54:25.283Z,100.00
2022-09-01T07:57:28.203Z,100.00
2022-09-01T08:00:31.942Z,100.00
2022-09-01T08:03:42.182Z,100.00
2022-09-01T08:06:45.090Z,100.00
2022-09-01T08:09:48.177Z,100.00
2022-09-01T08:12:59.771Z,100.00
2022-09-01T08:16:08.695Z,100.00
2022-09-01T08:19:16.895Z,100.00
2022-09-01T08:22:39.942Z,100.00
2022-09-01T08:25:52.379Z,100.00
2022-09-01T08:28:56.173Z,100.00
2022-09-01T08:32:18.568Z,95.80
2022-09-01T08:35:22.918Z,92.18
2022-09-01T08:38:25.915Z,93.79
2022-09-01T08:41:41.310Z,91.84
2022-09-01T08:44:59.751Z,90.59
2022-09-01T08:51:41.169Z,84.42
2022-09-01T08:54:48.036Z,84.15
2022-09-01T08:57:57.169Z,85.90
2022-09-01T09:01:09.115Z,81.93
2022-09-01T09:04:27.461Z,73.48
2022-09-01T09:07:50.234Z,72.79
2022-09-01T09:10:59.666Z,70.10
2022-09-01T09:14:12.399Z,71.22
2022-09-01T09:17:19.892Z,71.55
2022-09-01T09:20:22.936Z,71.20
2022-09-01T09:23:33.359Z,71.11
2022-09-01T09:26:43.495Z,66.65
2022-09-01T09:29:47.439Z,63.92
2022-09-01T09:36:25.444Z,67.51
2022-09-01T09:39:30.406Z,66.62
2022-09-01T09:42:36.639Z,67.76
2022-09-01T09:45:42.549Z,71.38
2022-09-01T09:48:45.385Z,69.59
2022-09-01T09:51:50.492Z,72.15
2022-09-01T09:55:04.818Z,70.68
2022-09-01T09:58:12.878Z,72.81
2022-09-01T10:01:30.721Z,68.38
2022-09-01T10:04:38.544Z,67.29
2022-09-01T10:07:41.413Z,61.82
2022-09-01T10:10:57.912Z,62.82
2022-09-01T10:14:02.279Z,60.24
2022-09-01T10:17:10.890Z,59.67
2022-09-01T10:20:18.229Z,56.80
2022-09-01T10:23:22.077Z,62.22
2022-09-01T10:26:32.807Z,66.82
2022-09-01T10:29:48.992Z,79.77
2022-09-01T10:32:57.041Z,82.98
2022-09-01T10:36:01.385Z,85.34
2022-09-01T10:39:08.908Z,85.93
2022-09-01T10:42:19.713Z,86.90
2022-09-01T10:45:34.091Z,82.45
2022-09-01T10:48:48.565Z,84.35
2022-09-01T10:51:56.604Z,87.71
2022-09-01T10:55:02.855Z,83.02
2022-09-01T11:02:28.375Z,76.76
2022-09-01T11:06:17.496Z,77.47
2022-09-01T11:09:24.117Z,73.12
2022-09-01T11:12:51.158Z,77.38
2022-09-01T11:16:00.405Z,73.61
2022-09-01T11:19:33.484Z,70.61
2022-09-01T11:22:39.394Z,69.09
2022-09-01T11:25:45.176Z,69.97
2022-09-01T11:28:48.291Z,67.65
2022-09-01T11:31:53.488Z,65.83
2022-09-01T11:34:58.748Z,66.86
2022-09-01T11:38:05.835Z,70.53
2022-09-01T11:41:09.387Z,62.23
2022-09-01T11:44:15.660Z,60.78
2022-09-01T11:47:23.410Z,60.46
2022-09-01T11:50:29.897Z,63.19
2022-09-01T11:53:33.072Z,68.30
2022-09-01T11:56:36.219Z,61.91
2022-09-01T11:59:39.660Z,60.59
2022-09-01T12:02:49.198Z,64.27
2022-09-01T12:05:59.468Z,62.37
2022-09-01T12:09:05.074Z,63.45
2022-09-01T12:12:29.473Z,58.68
2022-09-01T12:15:35.171Z,61.24
2022-09-01T12:18:47.467Z,59.61
2022-09-01T12:22:00.483Z,60.40
2022-09-01T12:25:04.694Z,61.49
2022-09-01T12:28:07.865Z,59.29
2022-09-01T12:31:16.528Z,60.82
2022-09-01T12:34:29.914Z,62.53
2022-09-01T12:37:32.810Z,61.34
2022-09-01T12:40:37.025Z,59.42
2022-09-01T12:43:42.619Z,61.43
2022-09-01T12:46:46.941Z,61.98
2022-09-01T12:49:52.326Z,64.14
2022-09-01T12:52:58.345Z,61.42
2022-09-01T12:56:07.588Z,61.81
2022-09-01T12:59:15.548Z,62.82
2022-09-01T13:02:36.800Z,60.25
2022-09-01T13:05:43.306Z,58.29
2022-09-01T13:08:46.303Z,58.64
2022-09-01T13:12:06.550Z,59.23
2022-09-01T13:15:11.086Z,58.89
2022-09-01T13:18:13.975Z,64.42
2022-09-01T13:21:18.327Z,63.77
2022-09-01T13:24:24.442Z,61.81
2022-09-01T13:27:29.573Z,63.53
2022-09-01T13:30:32.360Z,65.88
2022-09-01T13:37:01.120Z,67.37
2022-09-01T13:40:05.815Z,67.53
2022-09-01T13:43:08.718Z,67.49
2022-09-01T13:46:12.432Z,64.99
2022-09-01T13:52:40.405Z,66.37
2022-09-01T13:55:44.388Z,65.81
2022-09-01T13:58:48.439Z,67.88
2022-09-01T14:01:51.668Z,64.71
2022-09-01T14:04:54.569Z,63.40
2022-09-01T14:07:59.575Z,63.80
2022-09-01T14:11:02.996Z,68.66
2022-09-01T14:14:06.393Z,65.93
2022-09-01T14:17:09.412Z,63.58
2022-09-01T14:20:14.912Z,66.47
2022-09-01T14:23:20.173Z,67.73
2022-09-01T14:26:24.069Z,69.99
2022-09-01T14:29:31.015Z,63.97
2022-09-01T14:32:35.696Z,64.20
2022-09-01T14:35:41.294Z,66.21
2022-09-01T14:38:45.490Z,67.98
2022-09-01T14:41:48.344Z,64.40
2022-09-01T14:44:51.135Z,62.00
2022-09-01T14:47:57.054Z,64.32
2022-09-01T14:51:01.107Z,60.54
2022-09-01T14:54:06.084Z,61.71
2022-09-01T15:00:35.940Z,63.10
2022-09-01T15:03:39.400Z,60.86
2022-09-01T15:06:42.317Z,64.94
2022-09-01T15:09:46.580Z,60.37
2022-09-01T15:12:50.688Z,62.38
2022-09-01T15:15:53.928Z,62.61
2022-09-01T15:18:56.992Z,61.04
2022-09-01T15:21:59.798Z,61.01
2022-09-01T15:25:04.069Z,59.33
2022-09-01T15:28:06.965Z,59.74
2022-09-01T15:31:10.716Z,59.37
2022-09-01T15:34:17.701Z,60.01
2022-09-01T15:37:20.468Z,60.20
2022-09-01T15:40:26.606Z,57.23
2022-09-01T15:43:30.306Z,55.75
2022-09-01T15:46:33.775Z,57.29
2022-09-01T15:49:41.839Z,55.68
2022-09-01T15:52:50.939Z,54.89
2022-09-01T15:55:55.654Z,56.90
2022-09-01T15:59:01.567Z,61.40
2022-09-01T16:02:06.491Z,56.97
2022-09-01T16:05:10.912Z,57.89
2022-09-01T16:08:14.113Z,61.39
2022-09-01T16:11:18.655Z,62.44
2022-09-01T16:14:23.625Z,60.89
2022-09-01T16:17:39.878Z,61.98
2022-09-01T16:20:52.174Z,59.93
2022-09-01T16:23:55.649Z,64.44
2022-09-01T16:27:03.329Z,68.21
2022-09-01T16:30:10.047Z,70.68
2022-09-01T16:33:20.063Z,70.85
2022-09-01T16:36:35.448Z,71.37
2022-09-01T16:39:45.947Z,72.63
2022-09-01T16:42:58.192Z,70.00
2022-09-01T16:46:09.554Z,72.76
2022-09-01T16:49:23.608Z,71.53
2022-09-01T16:52:30.469Z,70.67
2022-09-01T16:55:41.509Z,70.02
2022-09-01T16:58:55.251Z,70.81
2022-09-01T17:02:10.990Z,70.52
2022-09-01T17:05:25.424Z,70.79
2022-09-01T17:08:33.015Z,70.78
2022-09-01T17:11:48.952Z,72.70
2022-09-01T17:14:58.255Z,72.38
2022-09-01T17:18:21.744Z,72.41
2022-09-01T17:21:33.357Z,70.22
2022-09-01T17:24:39.692Z,71.14
2022-09-01T17:27:51.056Z,72.26
2022-09-01T17:31:02.055Z,73.05
2022-09-01T17:34:18.815Z,72.63
2022-09-01T17:37:33.189Z,71.84
2022-09-01T17:40:53.040Z,73.21
2022-09-01T17:44:06.606Z,75.86
2022-09-01T17:47:20.859Z,75.78
2022-09-01T17:50:34.238Z,78.69
2022-09-01T17:53:49.848Z,79.37
2022-09-01T17:57:01.372Z,81.96
2022-09-01T18:00:24.182Z,84.95
2022-09-01T18:03:47.849Z,87.65
2022-09-01T18:06:57.363Z,88.88
2022-09-01T18:10:05.956Z,91.00
2022-09-01T18:13:25.896Z,90.99
2022-09-01T18:16:52.987Z,92.93
2022-09-01T18:20:08.917Z,93.09
2022-09-01T18:23:16.821Z,94.46
2022-09-01T18:26:27.278Z,94.80
2022-09-01T18:29:36.206Z,95.62
2022-09-01T18:32:43.557Z,95.97
2022-09-01T18:36:00.580Z,97.31
2022-09-01T18:39:08.719Z,97.49
2022-09-01T18:42:22.270Z,97.45
2022-09-01T18:45:35.651Z,97.56
2022-09-01T18:48:55.956Z,97.89
2022-09-01T18:52:11.303Z,97.87
2022-09-01T18:55:22.137Z,97.85
2022-09-01T18:58:38.848Z,96.96
2022-09-01T19:01:52.948Z,96.15
2022-09-01T19:05:07.240Z,98.38
2022-09-01T19:08:23.074Z,100.00
2022-09-01T19:11:45.994Z,100.00
2022-09-01T19:15:06.373Z,100.00
2022-09-01T19:18:15.873Z,100.00
2022-09-01T19:21:23.906Z,100.00
2022-09-01T19:24:37.173Z,100.00
2022-09-01T19:27:40.170Z,100.00
2022-09-01T19:30:48.737Z,100.00
2022-09-01T19:33:58.251Z,100.00
2022-09-01T19:37:03.252Z,100.00
2022-09-01T19:40:10.707Z,100.00
2022-09-01T19:43:18.406Z,100.00
2022-09-01T19:46:34.630Z,100.00
2022-09-01T19:49:48.432Z,100.00
2022-09-01T19:53:00.682Z,100.00
2022-09-01T19:56:13.563Z,100.00
2022-09-01T19:59:23.284Z,100.00
2022-09-01T20:02:31.316Z,100.00
2022-09-01T20:05:41.324Z,100.00
2022-09-01T20:08:54.978Z,100.00
2022-09-01T20:12:13.812Z,100.00
2022-09-01T20:15:27.246Z,100.00
2022-09-01T20:18:33.731Z,100.00
2022-09-01T20:21:40.154Z,100.00
2022-09-01T20:25:11.224Z,100.00
2022-09-01T20:28:26.668Z,100.00
2022-09-01T20:31:34.178Z,100.00
2022-09-01T20:34:44.887Z,100.00
2022-09-01T20:37:54.053Z,100.00
2022-09-01T20:41:01.981Z,100.00
2022-09-01T20:44:28.877Z,100.00
2022-09-01T20:47:33.060Z,100.00
2022-09-01T20:50:43.087Z,100.00
2022-09-01T20:54:15.226Z,100.00
2022-09-01T20:57:30.303Z,100.00
2022-09-01T21:00:42.480Z,100.00
2022-09-01T21:03:57.961Z,100.00
2022-09-01T21:07:05.714Z,100.00
2022-09-01T21:10:21.243Z,100.00
2022-09-01T21:13:39.409Z,100.00
2022-09-01T21:16:50.405Z,100.00
2022-09-01T21:20:03.954Z,100.00
2022-09-01T21:23:06.941Z,100.00
2022-09-01T21:26:10.443Z,100.00
2022-09-01T21:29:26.597Z,100.00
2022-09-01T21:32:33.708Z,100.00
2022-09-01T21:35:36.524Z,100.00
2022-09-01T21:38:39.491Z,100.00
2022-09-01T21:41:42.522Z,100.00
2022-09-01T21:44:45.713Z,100.00
2022-09-01T21:47:51.074Z,100.00
2022-09-01T21:50:54.139Z,100.00
2022-09-01T21:53:56.889Z,100.00
2022-09-01T21:56:59.655Z,100.00
2022-09-01T22:00:02.923Z,100.00
2022-09-01T22:03:07.739Z,100.00
2022-09-01T22:06:12.791Z,100.00
2022-09-01T22:09:20.553Z,100.00
2022-09-01T22:12:24.347Z,100.00
2022-09-01T22:15:27.523Z,100.00
2022-09-01T22:18:31.692Z,100.00
2022-09-01T22:21:36.352Z,100.00
2022-09-01T22:24:39.113Z,100.00
2022-09-01T22:27:42.198Z,100.00
2022-09-01T22:30:46.327Z,100.00
2022-09-01T22:33:50.709Z,100.00
2022-09-01T22:36:53.490Z,100.00
2022-09-01T22:39:56.347Z,100.00
2022-09-01T22:42:59.101Z,100.00
2022-09-01T22:46:01.986Z,100.00
2022-09-01T22:49:06.704Z,100.00
2022-09-01T22:52:09.528Z,100.00
2022-09-01T22:55:13.690Z,100.00
2022-09-01T22:58:17.486Z,100.00
2022-09-01T23:01:22.596Z,100.00
2022-09-01T23:04:26.807Z,100.00
2022-09-01T23:07:29.609Z,100.00
2022-09-01T23:10:32.725Z,100.00
2022-09-01T23:13:36.716Z,100.00
2022-09-01T23:16:39.647Z,100.00
2022-09-01T23:19:43.836Z,100.00
2022-09-01T23:22:47.014Z,100.00
2022-09-01T23:25:53.467Z,100.00
2022-09-01T23:28:57.635Z,100.00
2022-09-01T23:32:00.609Z,100.00
2022-09-01T23:35:06.085Z,100.00
2022-09-01T23:38:10.697Z,100.00
2022-09-01T23:41:17.868Z,100.00
2022-09-01T23:44:21.804Z,100.00
2022-09-01T23:47:24.559Z,100.00
2022-09-01T23:50:28.763Z,100.00
2022-09-01T23:53:32.829Z,100.00
2022-09-01T23:56:35.622Z,100.00
2022-09-01T23:59:38.532Z,100.00
